Time;durP1;ratioP1;P1;durP2;ratioP2;P2;SDS_P1;SDS_P2;PMS_P1;PMS_P2;Temp;Humidity;BMP_temperature;BMP_pressure;BME280_temperature;BME280_humidity;BME280_pressure;Samples;Min_cycle;Max_cycle;Signal;HPM_P1;HPM_P2
2022/11/11 00:02:26;;;;;;;3.47;1.23;;;;;;;4.96;100.00;100092.63;4995887;28;20337;-61
2022/11/11 00:05:11;;;;;;;8.00;1.93;;;;;;;4.99;100.00;100089.06;4996156;28;20621;-61
2022/11/11 00:07:58;;;;;;;2.50;1.20;;;;;;;5.02;100.00;100084.53;4998992;28;20240;-60
2022/11/11 00:10:45;;;;;;;3.73;1.07;;;;;;;5.00;100.00;100086.38;4996978;28;20776;-61
2022/11/11 00:13:31;;;;;;;3.17;1.27;;;;;;;4.99;100.00;100082.09;4976037;28;20363;-60
2022/11/11 00:16:17;;;;;;;10.57;1.23;;;;;;;4.91;100.00;100086.00;4982880;28;20894;-60
2022/11/11 00:25:06;;;;;;;4.57;1.30;;;;;;;4.89;100.00;100091.25;4974371;28;20302;-60
2022/11/11 00:27:53;;;;;;;5.87;1.37;;;;;;;4.86;100.00;100088.81;4998546;28;20243;-61
2022/11/11 00:30:38;;;;;;;2.87;1.30;;;;;;;4.83;100.00;100096.75;4973582;28;20248;-61
2022/11/11 00:33:23;;;;;;;3.20;1.30;;;;;;;4.79;100.00;100093.47;4974551;28;20907;-61
2022/11/11 00:36:08;;;;;;;5.13;1.67;;;;;;;4.82;100.00;100089.88;4969545;28;20837;-60
2022/11/11 00:38:54;;;;;;;7.60;1.63;;;;;;;4.77;100.00;100084.97;4997062;28;20243;-60
2022/11/11 00:41:39;;;;;;;6.67;1.50;;;;;;;4.73;100.00;100086.88;4995934;28;20306;-60
2022/11/11 00:44:26;;;;;;;2.37;1.30;;;;;;;4.79;100.00;100084.88;4996066;28;20235;-61
2022/11/11 00:53:23;;;;;;;4.70;1.23;;;;;;;4.96;100.00;100084.03;4995280;28;20262;-62
2022/11/11 00:56:08;;;;;;;6.73;1.23;;;;;;;4.95;100.00;100090.13;4995078;28;20236;-60
2022/11/11 00:58:53;;;;;;;3.87;1.23;;;;;;;4.87;100.00;100096.53;4999030;28;20600;-61
2022/11/11 01:01:40;;;;;;;8.17;1.50;;;;;;;4.87;100.00;100101.69;4975536;28;20293;-61
2022/11/11 01:04:25;;;;;;;5.73;1.17;;;;;;;4.86;100.00;100100.03;4976524;28;20236;-61
2022/11/11 01:07:10;;;;;;;6.97;1.70;;;;;;;4.80;100.00;100102.06;4977547;28;20689;-61
2022/11/11 01:09:55;;;;;;;3.47;1.50;;;;;;;4.73;100.00;100102.41;4978850;28;20602;-60
2022/11/11 01:12:41;;;;;;;2.60;1.17;;;;;;;4.66;100.00;100110.53;4990126;28;20344;-62
2022/11/11 01:15:26;;;;;;;2.53;1.10;;;;;;;4.58;100.00;100110.91;4977216;28;20746;-61
2022/11/11 01:18:18;;;;;;;1.97;1.30;;;;;;;4.55;100.00;100118.81;4980788;28;20736;-60
2022/11/11 01:21:05;;;;;;;2.63;1.40;;;;;;;4.52;100.00;100119.81;4999029;28;20239;-61
2022/11/11 01:23:53;;;;;;;10.57;2.13;;;;;;;4.55;100.00;100117.06;4983173;28;20240;-60
2022/11/11 01:26:37;;;;;;;4.10;1.10;;;;;;;4.49;100.00;100116.53;4985768;28;20234;-60
2022/11/11 01:29:22;;;;;;;3.33;1.40;;;;;;;4.48;100.00;100115.69;4991085;28;20267;-61
2022/11/11 01:32:08;;;;;;;3.03;1.23;;;;;;;4.41;100.00;100107.41;4982208;28;20231;-60
2022/11/11 01:34:54;;;;;;;4.70;1.00;;;;;;;4.43;100.00;100112.50;4983466;28;20235;-60
2022/11/11 01:37:39;;;;;;;3.53;1.40;;;;;;;4.47;100.00;100110.59;4981025;28;20236;-60
2022/11/11 01:40:25;;;;;;;3.57;1.07;;;;;;;4.47;100.00;100113.19;4981597;28;20217;-60
2022/11/11 01:43:18;;;;;;;5.47;1.40;;;;;;;4.32;100.00;100115.59;4982037;28;20260;-61
2022/11/11 01:46:16;;;;;;;3.87;1.33;;;;;;;4.27;100.00;100115.81;4992930;28;20286;-61
2022/11/11 01:49:22;;;;;;;9.43;1.40;;;;;;;4.32;100.00;100112.16;5003950;28;20302;-61
2022/11/11 01:52:12;;;;;;;2.87;0.93;;;;;;;4.29;100.00;100111.41;4996482;28;20339;-61
2022/11/11 01:55:19;;;;;;;3.77;1.40;;;;;;;4.32;100.00;100114.75;4983571;28;20232;-61
2022/11/11 01:58:07;;;;;;;2.37;1.13;;;;;;;4.32;100.00;100117.34;4997507;28;20412;-61
2022/11/11 02:00:53;;;;;;;3.87;1.13;;;;;;;4.29;100.00;100115.75;4990904;28;20695;-61
2022/11/11 02:05:40;;;;;;;6.30;1.43;;;;;;;4.31;100.00;100121.69;5004064;28;20374;-60
2022/11/11 02:06:47;;;;;;;2.83;1.20;;;;;;;4.27;100.00;100113.22;5004114;28;20306;-59
2022/11/11 02:09:41;;;;;;;3.92;1.40;;;;;;;4.32;100.00;100125.09;4991616;28;20494;-62
2022/11/11 02:15:29;;;;;;;3.23;1.40;;;;;;;4.23;100.00;100114.31;4984937;28;20233;-60
2022/11/11 02:18:14;;;;;;;7.57;1.27;;;;;;;4.28;100.00;100121.84;4985786;28;20228;-60
2022/11/11 02:20:59;;;;;;;1.87;1.20;;;;;;;4.29;100.00;100118.34;4987623;28;20332;-61
2022/11/11 02:23:55;;;;;;;4.10;1.30;;;;;;;4.22;100.00;100115.22;5003060;28;20624;-58
2022/11/11 02:26:43;;;;;;;4.07;1.30;;;;;;;4.20;100.00;100106.72;4984191;28;20232;-60
2022/11/11 02:29:29;;;;;;;2.77;1.00;;;;;;;4.20;100.00;100111.88;4984451;28;20311;-60
2022/11/11 02:32:15;;;;;;;5.47;1.27;;;;;;;4.27;100.00;100107.22;4991221;28;20235;-60
2022/11/11 02:35:21;;;;;;;3.87;1.10;;;;;;;4.27;100.00;100118.41;4995280;28;20661;-60
2022/11/11 02:38:14;;;;;;;4.07;1.03;;;;;;;4.22;100.00;100111.78;4981497;28;20640;-60
2022/11/11 02:44:57;;;;;;;3.10;1.27;;;;;;;4.26;100.00;100115.91;5001088;28;20231;-61
2022/11/11 02:48:18;;;;;;;3.23;1.30;;;;;;;4.15;100.00;100121.59;4992413;28;20240;-61
2022/11/11 02:51:04;;;;;;;4.27;1.50;;;;;;;4.13;100.00;100126.81;5004311;28;20235;-60
2022/11/11 02:53:49;;;;;;;9.57;1.60;;;;;;;4.31;100.00;100137.19;4986297;28;20787;-60
2022/11/11 02:59:45;;;;;;;3.07;1.80;;;;;;;4.25;100.00;100132.31;5003910;28;20235;-60
2022/11/11 03:02:31;;;;;;;1.80;1.00;;;;;;;4.22;100.00;100132.47;5004780;28;20244;-59
2022/11/11 03:05:16;;;;;;;6.17;1.40;;;;;;;4.14;100.00;100125.09;5003844;28;20238;-60
2022/11/11 03:08:02;;;;;;;4.27;1.33;;;;;;;4.11;100.00;100112.31;5006346;28;20576;-60
2022/11/11 03:10:49;;;;;;;3.43;1.60;;;;;;;4.14;100.00;100102.66;4990049;28;20958;-60
2022/11/11 03:13:36;;;;;;;4.10;1.30;;;;;;;4.10;100.00;100105.47;4991461;28;20601;-59
2022/11/11 03:19:24;;;;;;;4.70;1.27;;;;;;;4.10;100.00;100105.47;4986931;28;20286;-60
2022/11/11 03:22:10;;;;;;;3.33;1.10;;;;;;;4.11;100.00;100113.13;4985987;28;20240;-60
2022/11/11 03:28:25;;;;;;;4.90;1.30;;;;;;;4.02;100.00;100095.47;4988566;28;20264;-59
2022/11/11 03:31:57;;;;;;;;;;;;;;;;;;;;;
2022/11/11 03:34:57;;;;;;;3.13;1.20;;;;;;;3.91;100.00;100103.75;4984604;28;20240;-60
2022/11/11 03:40:50;;;;;;;11.07;2.70;;;;;;;4.05;100.00;100099.69;4997229;28;20779;-60
2022/11/11 03:43:35;;;;;;;2.20;1.33;;;;;;;4.03;100.00;100112.66;4983449;28;20263;-60
2022/11/11 03:46:21;;;;;;;2.43;1.03;;;;;;;4.01;100.00;100111.06;4993304;28;20315;-60
2022/11/11 03:49:12;;;;;;;2.90;1.10;;;;;;;3.98;100.00;100106.88;5002130;28;20230;-60
2022/11/11 03:52:04;;;;;;;4.43;1.20;;;;;;;3.95;100.00;100107.84;5006968;28;20258;-60
2022/11/11 03:54:53;;;;;;;5.53;1.63;;;;;;;3.97;100.00;100116.38;4991141;28;20244;-60
2022/11/11 03:57:41;;;;;;;2.20;1.13;;;;;;;3.92;100.00;100117.47;4983566;28;20231;-60
2022/11/11 04:00:29;;;;;;;5.37;1.20;;;;;;;3.92;100.00;100113.16;4984315;28;20671;-61
2022/11/11 04:16:08;;;;;;;4.77;2.30;;;;;;;3.76;100.00;100148.34;4996792;28;20227;-60
2022/11/11 04:22:22;;;;;;;8.03;3.20;;;;;;;3.57;100.00;100159.50;4983526;28;20267;-60
2022/11/11 04:31:26;;;;;;;10.97;4.63;;;;;;;3.57;100.00;100169.84;5207569;23;20366;-60
2022/11/11 04:34:13;;;;;;;14.80;4.73;;;;;;;3.58;100.00;100187.00;5053446;28;20300;-60
2022/11/11 04:41:02;;;;;;;23.37;4.27;;;;;;;3.56;100.00;100191.41;5069960;28;20241;-59
2022/11/11 04:41:23;;;;;;;10.63;4.17;;;;;;;3.53;100.00;100191.53;5071929;28;20238;-59
2022/11/11 04:50:50;;;;;;;5.70;3.57;;;;;;;3.50;100.00;100195.09;5006831;28;20348;-60
2022/11/11 05:01:06;;;;;;;4.43;2.40;;;;;;;3.22;100.00;100196.28;4990120;28;20593;-61
2022/11/11 05:04:11;;;;;;;3.17;2.40;;;;;;;3.20;100.00;100198.09;5005353;28;20235;-60
2022/11/11 05:21:31;;;;;;;3.10;1.40;;;;;;;3.02;100.00;100222.91;5066513;28;20237;-60
2022/11/11 05:32:13;;;;;;;9.37;1.40;;;;;;;3.05;100.00;100230.53;5047958;28;20287;-59
2022/11/11 05:35:06;;;;;;;3.03;1.20;;;;;;;3.14;100.00;100231.88;5025054;28;20355;-60
2022/11/11 05:41:53;;;;;;;4.10;1.20;;;;;;;3.04;100.00;100239.19;4877122;29;20459;-60
2022/11/11 06:08:08;;;;;;;3.97;1.47;;;;;;;3.28;100.00;100257.09;4866042;29;20243;-60
2022/11/11 06:11:20;;;;;;;4.13;1.30;;;;;;;3.29;100.00;100251.03;4898670;29;20238;-61
2022/11/11 06:14:13;;;;;;;4.80;1.33;;;;;;;3.36;100.00;100260.22;4966965;28;20772;-61
2022/11/11 06:17:07;;;;;;;5.03;1.57;;;;;;;3.42;100.00;100258.28;4978509;28;20232;-61
2022/11/11 06:20:06;;;;;;;2.33;1.27;;;;;;;3.38;100.00;100258.41;4985734;28;20236;-61
2022/11/11 06:26:15;;;;;;;3.03;1.40;;;;;;;3.45;100.00;100260.72;4971347;28;20825;-60
2022/11/11 06:29:04;;;;;;;4.13;1.50;;;;;;;3.43;100.00;100260.81;4979396;28;20240;-61
2022/11/11 06:31:54;;;;;;;4.03;1.33;;;;;;;3.39;100.00;100267.81;5055312;28;20280;-59
2022/11/11 06:34:40;;;;;;;7.93;1.50;;;;;;;3.37;100.00;100261.88;5049958;28;20238;-60
2022/11/11 06:37:26;;;;;;;5.93;1.50;;;;;;;3.49;100.00;100259.69;5064551;28;20257;-60
2022/11/11 06:40:12;;;;;;;3.57;1.30;;;;;;;3.51;100.00;100261.31;5071237;28;20253;-59
2022/11/11 06:43:05;;;;;;;2.53;1.30;;;;;;;3.52;100.00;100255.25;5066375;28;20234;-60
2022/11/11 06:45:54;;;;;;;2.40;1.20;;;;;;;3.55;100.00;100259.44;5057680;28;20264;-61
2022/11/11 06:48:41;;;;;;;5.80;1.13;;;;;;;3.61;100.00;100250.59;5051812;28;20237;-61
2022/11/11 06:51:26;;;;;;;3.47;1.37;;;;;;;3.63;100.00;100264.28;5055001;28;20328;-60
2022/11/11 06:54:11;;;;;;;3.03;1.27;;;;;;;3.69;100.00;100261.44;5061511;28;20237;-61
2022/11/11 06:56:57;;;;;;;2.50;1.50;;;;;;;3.84;100.00;100278.00;5072899;28;20237;-61
2022/11/11 07:00:01;;;;;;;3.40;1.50;;;;;;;3.83;100.00;100287.47;5072550;28;20236;-61
2022/11/11 07:02:46;;;;;;;4.47;1.70;;;;;;;3.87;100.00;100283.03;5063627;28;20232;-61
2022/11/11 07:05:55;;;;;;;3.53;1.40;;;;;;;3.93;100.00;100284.50;5064392;28;20700;-60
2022/11/11 07:08:49;;;;;;;5.90;2.10;;;;;;;3.99;100.00;100289.41;5062897;28;20241;-61
2022/11/11 07:11:40;;;;;;;3.13;1.70;;;;;;;4.12;100.00;100285.38;5063518;28;20237;-60
2022/11/11 07:17:36;;;;;;;3.87;1.50;;;;;;;4.26;100.00;100287.31;5062034;28;20694;-60
2022/11/11 07:20:21;;;;;;;6.63;2.10;;;;;;;4.33;100.00;100284.47;5071827;28;20360;-61
2022/11/11 07:23:09;;;;;;;4.17;1.50;;;;;;;4.40;100.00;100291.88;5067489;28;20233;-61
2022/11/11 07:25:56;;;;;;;5.13;1.70;;;;;;;4.47;100.00;100295.03;5064890;28;20360;-61
2022/11/11 07:29:07;;;;;;;4.33;1.90;;;;;;;4.56;100.00;100301.53;5071231;28;20232;-60
2022/11/11 07:32:02;;;;;;;6.20;2.80;;;;;;;4.66;100.00;100309.69;5061755;28;20410;-60
2022/11/11 07:34:49;;;;;;;6.17;2.40;;;;;;;4.77;100.00;100311.81;5071427;28;20708;-59
2022/11/11 07:37:36;;;;;;;5.50;2.77;;;;;;;4.82;100.00;100308.06;5053513;28;20319;-59
2022/11/11 07:40:31;;;;;;;4.20;2.97;;;;;;;4.95;100.00;100304.91;5069300;28;20240;-60
2022/11/11 07:43:16;;;;;;;5.53;2.60;;;;;;;5.00;100.00;100308.13;5060469;28;20327;-61
2022/11/11 07:46:03;;;;;;;6.67;3.93;;;;;;;5.10;100.00;100298.16;5069221;28;20232;-61
2022/11/11 07:49:14;;;;;;;12.67;4.83;;;;;;;5.13;100.00;100296.25;5071032;28;20721;-61
2022/11/11 07:55:20;;;;;;;16.13;7.50;;;;;;;5.28;100.00;100306.78;5048211;28;20702;-60
2022/11/11 08:09:51;;;;;;;9.30;5.20;;;;;;;5.58;100.00;100290.59;4988277;28;20239;-60
2022/11/11 08:16:20;;;;;;;14.07;6.00;;;;;;;5.85;100.00;100306.50;4959960;28;20323;-60
2022/11/11 08:19:23;;;;;;;10.43;4.90;;;;;;;5.84;100.00;100312.59;4992839;28;20318;-61
2022/11/11 08:22:30;;;;;;;12.30;7.00;;;;;;;5.93;100.00;100307.84;4990507;28;20231;-61
2022/11/11 08:25:33;;;;;;;10.00;6.13;;;;;;;5.99;100.00;100304.94;4980535;28;20236;-60
2022/11/11 08:29:00;;;;;;;9.90;5.23;;;;;;;6.10;100.00;100312.22;4986451;28;20274;-61
2022/11/11 08:36:12;;;;;;;16.73;5.10;;;;;;;5.94;100.00;100310.38;4952285;28;20664;-61
2022/11/11 08:39:00;;;;;;;134.27;12.10;;;;;;;5.66;100.00;100308.38;5005634;28;20239;-63
2022/11/11 08:41:45;;;;;;;98.93;11.37;;;;;;;5.61;100.00;100319.81;5001933;28;20228;-61
2022/11/11 08:44:30;;;;;;;366.07;17.53;;;;;;;5.55;100.00;100324.44;5068815;28;20220;-61
2022/11/11 08:50:54;;;;;;;13.03;6.47;;;;;;;5.99;100.00;100325.69;5068050;28;20255;-60
2022/11/11 08:57:03;;;;;;;87.40;7.93;;;;;;;5.91;100.00;100319.13;5033924;28;20271;-61
2022/11/11 08:59:48;;;;;;;16.20;7.00;;;;;;;6.17;100.00;100318.75;5071071;28;20609;-61
2022/11/11 09:02:33;;;;;;;21.47;6.93;;;;;;;6.29;100.00;100312.06;5066695;28;20368;-60
2022/11/11 09:06:00;;;;;;;12.77;7.93;;;;;;;6.64;100.00;100312.75;5066427;28;20712;-61
2022/11/11 09:12:39;;;;;;;21.97;8.57;;;;;;;6.94;100.00;100313.72;4991301;28;20235;-61
2022/11/11 09:15:42;;;;;;;;;;;;;;;;;;;;;
2022/11/11 09:19:09;;;;;;;14.30;7.93;;;;;;;6.92;100.00;100318.16;5066636;28;20241;-62
2022/11/11 09:21:56;;;;;;;12.93;7.53;;;;;;;7.05;100.00;100319.16;5069620;28;20237;-61
2022/11/11 09:24:41;;;;;;;11.63;7.80;;;;;;;7.10;100.00;100318.91;5060097;28;20252;-61
2022/11/11 09:27:29;;;;;;;13.63;8.87;;;;;;;7.26;100.00;100313.69;5047787;28;20224;-61
2022/11/11 09:30:24;;;;;;;13.63;7.83;;;;;;;7.22;100.00;100320.81;5061037;28;20280;-61
2022/11/11 09:33:11;;;;;;;12.70;8.17;;;;;;;7.20;100.00;100327.03;5048993;28;20737;-60
2022/11/11 09:35:57;;;;;;;12.10;7.13;;;;;;;7.36;100.00;100329.59;5057065;28;20866;-61
2022/11/11 09:38:42;;;;;;;11.63;7.07;;;;;;;7.41;100.00;100330.16;5055207;28;20714;-61
2022/11/11 09:41:47;;;;;;;11.23;8.00;;;;;;;7.38;100.00;100327.75;5062101;28;20237;-61
2022/11/11 09:44:48;;;;;;;10.77;6.53;;;;;;;7.42;100.00;100326.63;5058034;28;20255;-61
2022/11/11 09:47:43;;;;;;;12.00;8.57;;;;;;;7.44;100.00;100327.38;5055228;28;20232;-61
2022/11/11 09:50:36;;;;;;;11.03;7.97;;;;;;;7.54;100.00;100320.72;5049391;28;20256;-60
2022/11/11 09:53:38;;;;;;;11.50;7.40;;;;;;;7.58;100.00;100315.34;5066975;28;20247;-61
2022/11/11 09:56:37;;;;;;;9.90;7.60;;;;;;;7.73;100.00;100319.63;5067319;28;20418;-60
2022/11/11 10:00:07;;;;;;;25.37;18.03;;;;;;;7.93;100.00;100320.22;5059392;28;20586;-59
2022/11/11 10:03:30;;;;;;;22.90;17.40;;;;;;;8.12;100.00;100309.53;5000544;28;21379;-60
2022/11/11 10:10:41;;;;;;;18.80;11.53;;;;;;;8.40;100.00;100307.84;5051218;28;20362;-61
2022/11/11 10:14:23;;;;;;;;;;;;;;;;;;;;;
2022/11/11 10:17:21;;;;;;;10.77;7.17;;;;;;;8.69;100.00;100311.25;5036877;28;20234;-60
2022/11/11 10:20:33;;;;;;;12.07;7.53;;;;;;;8.66;100.00;100300.22;5057562;28;20749;-62
2022/11/11 10:23:37;;;;;;;13.83;8.77;;;;;;;8.58;100.00;100303.28;5059724;28;20229;-60
2022/11/11 10:26:43;;;;;;;17.07;9.23;;;;;;;8.60;100.00;100306.63;5049644;28;20311;-59
2022/11/11 10:37:21;;;;;;;12.73;7.67;;;;;;;8.44;100.00;100300.69;4961548;28;20236;-60
2022/11/11 10:40:30;;;;;;;12.47;7.20;;;;;;;8.63;100.00;100300.41;4971653;28;20256;-61
2022/11/11 10:43:36;;;;;;;11.13;6.60;;;;;;;8.83;100.00;100304.34;4966702;28;20275;-61
2022/11/11 10:47:02;;;;;;;9.90;6.27;;;;;;;9.05;100.00;100303.78;4968361;28;21763;-60
2022/11/11 10:50:07;;;;;;;9.80;6.13;;;;;;;9.28;100.00;100298.84;4978571;28;20918;-61
2022/11/11 11:03:36;;;;;;;8.93;5.37;;;;;;;9.56;99.70;100295.22;4972117;28;20239;-62
2022/11/11 11:11:06;;;;;;;10.63;5.93;;;;;;;9.45;100.00;100305.56;4956914;28;20283;-62
2022/11/11 11:20:58;;;;;;;14.40;7.93;;;;;;;9.29;99.78;100303.97;5589267;22;20283;-61
2022/11/11 11:35:30;;;;;;;11.33;8.10;;;;;;;9.04;100.00;100294.28;4856269;29;20232;-61
2022/11/11 11:38:17;;;;;;;13.47;8.10;;;;;;;9.16;100.00;100290.06;4902084;28;20234;-61
2022/11/11 11:41:36;;;;;;;12.27;7.90;;;;;;;9.38;100.00;100289.47;4954867;28;20244;-61
2022/11/11 11:44:28;;;;;;;10.73;7.30;;;;;;;9.50;99.54;100287.00;4952432;28;20630;-62
2022/11/11 11:47:29;;;;;;;11.27;8.17;;;;;;;9.74;99.52;100276.66;4953602;28;20350;-62
2022/11/11 11:50:30;;;;;;;12.70;8.13;;;;;;;9.83;99.91;100268.22;4952375;28;22380;-62
2022/11/11 11:53:32;;;;;;;11.67;7.87;;;;;;;9.98;99.66;100261.13;4953733;28;20276;-61
2022/11/11 11:56:26;;;;;;;11.00;7.73;;;;;;;10.16;98.63;100259.00;4951531;28;20233;-62
2022/11/11 11:59:17;;;;;;;12.57;9.33;;;;;;;9.94;96.88;100264.03;4953791;28;20233;-62
2022/11/11 12:02:21;;;;;;;12.30;8.93;;;;;;;10.02;98.33;100267.81;4977181;28;20244;-62
2022/11/11 12:05:22;;;;;;;13.67;9.23;;;;;;;9.97;97.29;100271.66;4974700;28;20236;-62
2022/11/11 12:08:27;;;;;;;14.60;8.90;;;;;;;9.95;96.32;100265.69;4977526;28;20628;-62
2022/11/11 12:11:19;;;;;;;12.97;9.00;;;;;;;10.12;98.08;100267.97;4976431;28;20664;-61
2022/11/11 12:14:28;;;;;;;14.93;9.60;;;;;;;10.02;97.06;100259.97;4977535;28;21072;-62
2022/11/11 12:17:26;;;;;;;12.77;9.50;;;;;;;10.15;98.45;100267.75;4972716;28;20248;-62
2022/11/11 12:20:18;;;;;;;15.37;9.73;;;;;;;10.12;99.61;100274.97;4974851;28;20343;-62
2022/11/11 12:23:25;;;;;;;16.13;10.23;;;;;;;9.85;98.39;100274.16;4980983;28;20276;-60
2022/11/11 12:26:19;;;;;;;14.27;10.60;;;;;;;9.69;100.00;100273.53;4972097;28;20225;-62
2022/11/11 12:29:14;;;;;;;17.47;10.43;;;;;;;9.65;100.00;100270.31;4978361;28;20239;-61
2022/11/11 12:32:16;;;;;;;14.77;10.53;;;;;;;9.54;100.00;100272.81;4974833;28;20431;-61
2022/11/11 12:35:28;;;;;;;15.73;11.20;;;;;;;9.50;100.00;100273.97;4975201;28;20336;-61
2022/11/11 12:38:26;;;;;;;17.63;11.83;;;;;;;9.35;100.00;100273.22;4973945;28;20227;-62
2022/11/11 12:41:23;;;;;;;18.47;12.83;;;;;;;9.17;100.00;100268.28;4975531;28;20279;-61
2022/11/11 12:44:10;;;;;;;15.37;11.47;;;;;;;8.94;100.00;100265.41;4975452;28;20224;-61
2022/11/11 12:47:11;;;;;;;18.67;12.20;;;;;;;8.88;100.00;100270.19;4978904;28;20252;-61
2022/11/11 12:50:07;;;;;;;21.20;12.27;;;;;;;8.83;100.00;100265.28;4975772;28;20248;-61
2022/11/11 12:53:10;;;;;;;18.43;12.10;;;;;;;8.91;100.00;100259.59;4977037;28;20244;-62
2022/11/11 12:56:05;;;;;;;17.80;12.87;;;;;;;8.77;100.00;100260.47;4974710;28;20243;-62
2022/11/11 12:59:00;;;;;;;21.03;14.47;;;;;;;8.69;100.00;100261.78;4976488;28;20307;-61
2022/11/11 13:01:55;;;;;;;18.63;13.07;;;;;;;8.81;100.00;100267.13;4975884;28;21009;-62
2022/11/11 13:04:55;;;;;;;19.93;13.27;;;;;;;8.91;100.00;100264.78;4973304;28;20708;-61
2022/11/11 13:08:17;;;;;;;20.23;13.47;;;;;;;9.03;100.00;100261.34;4973345;28;20236;-60
2022/11/11 13:11:12;;;;;;;19.95;16.05;;;;;;;9.00;100.00;100266.81;4974896;28;20456;-62
2022/11/11 13:14:18;;;;;;;23.53;14.30;;;;;;;8.86;100.00;100265.06;4974754;28;20240;-61
2022/11/11 13:17:10;;;;;;;21.27;14.27;;;;;;;9.00;100.00;100262.41;4975771;28;20255;-61
2022/11/11 13:19:58;;;;;;;20.50;14.33;;;;;;;9.16;100.00;100262.22;4974977;28;20244;-61
2022/11/11 13:22:43;;;;;;;20.77;14.40;;;;;;;9.13;100.00;100266.81;4974207;28;20755;-61
2022/11/11 13:25:32;;;;;;;21.87;14.87;;;;;;;9.24;100.00;100266.94;4977010;28;20235;-61
2022/11/11 13:28:23;;;;;;;20.63;13.93;;;;;;;9.31;100.00;100267.38;4976763;28;20796;-62
2022/11/11 13:31:23;;;;;;;20.77;13.90;;;;;;;9.40;100.00;100265.94;4975277;28;20359;-62
2022/11/11 13:34:12;;;;;;;20.87;14.33;;;;;;;9.38;100.00;100258.19;4975853;28;20339;-61
2022/11/11 13:36:57;;;;;;;20.23;14.60;;;;;;;9.52;100.00;100259.06;4975384;28;20245;-61
2022/11/11 13:39:47;;;;;;;21.77;14.83;;;;;;;9.62;100.00;100265.31;4975323;28;20240;-61
2022/11/11 13:42:39;;;;;;;20.43;13.87;;;;;;;9.60;100.00;100262.78;4977583;28;20709;-62
2022/11/11 13:45:28;;;;;;;19.53;14.53;;;;;;;9.70;100.00;100277.81;4978376;28;20356;-61
2022/11/11 13:48:27;;;;;;;23.17;15.23;;;;;;;9.58;100.00;100277.69;4962272;28;20225;-61
2022/11/11 13:51:22;;;;;;;24.50;15.37;;;;;;;9.75;100.00;100284.41;4979701;28;20237;-61
2022/11/11 13:54:23;;;;;;;20.63;14.27;;;;;;;10.02;100.00;100287.81;4981090;28;20368;-60
2022/11/11 13:57:17;;;;;;;22.07;14.77;;;;;;;10.24;100.00;100284.53;4978350;28;20589;-62
2022/11/11 14:00:06;;;;;;;21.67;14.80;;;;;;;10.38;100.00;100280.97;4981704;28;20585;-61
2022/11/11 14:03:33;;;;;;;18.70;12.80;;;;;;;10.51;100.00;100280.13;4959538;28;20237;-62
2022/11/11 14:06:53;;;;;;;18.70;12.57;;;;;;;10.43;99.32;100284.13;4978859;28;20234;-62
2022/11/11 14:10:00;;;;;;;17.67;14.82;;;;;;;10.30;100.00;100271.06;4933710;28;20853;-61
2022/11/11 14:12:51;;;;;;;20.73;14.40;;;;;;;10.14;100.00;100267.84;4970239;28;20931;-61
2022/11/11 14:15:44;;;;;;;24.87;14.53;;;;;;;10.06;100.00;100265.78;4973679;28;20233;-61
2022/11/11 14:18:55;;;;;;;21.37;14.87;;;;;;;9.93;100.00;100265.81;4839841;28;20573;-61
2022/11/11 14:21:48;;;;;;;21.50;13.63;;;;;;;9.64;100.00;100265.19;4949012;28;20244;-62
2022/11/11 14:24:38;;;;;;;23.60;15.03;;;;;;;9.49;100.00;100267.94;4979168;28;20241;-61
2022/11/11 14:27:29;;;;;;;19.00;13.07;;;;;;;9.28;100.00;100273.63;4972810;28;20253;-57
2022/11/11 14:30:37;;;;;;;20.63;13.33;;;;;;;9.27;100.00;100271.97;4980412;28;20264;-59
2022/11/11 14:33:45;;;;;;;18.57;13.77;;;;;;;9.19;100.00;100274.22;4978226;28;20255;-63
2022/11/11 14:36:43;;;;;;;19.40;13.13;;;;;;;8.98;100.00;100285.13;4979542;28;20972;-60
2022/11/11 14:39:37;;;;;;;19.20;12.90;;;;;;;8.97;100.00;100280.84;4975836;28;20248;-59
2022/11/11 14:42:45;;;;;;;19.13;13.93;;;;;;;9.00;100.00;100277.22;4977460;28;20327;-60
2022/11/11 14:45:52;;;;;;;19.67;13.43;;;;;;;8.82;100.00;100271.41;4978716;28;20286;-63
2022/11/11 14:48:58;;;;;;;21.67;14.50;;;;;;;8.75;100.00;100265.78;4928626;28;20236;-60
2022/11/11 14:51:50;;;;;;;19.27;13.93;;;;;;;8.76;100.00;100266.59;4916009;28;20621;-60
2022/11/11 14:54:47;;;;;;;21.73;13.87;;;;;;;8.75;100.00;100272.75;4977251;28;20262;-60
2022/11/11 14:57:36;;;;;;;21.53;14.77;;;;;;;8.74;100.00;100265.88;4978497;28;20275;-61
2022/11/11 15:00:24;;;;;;;23.97;13.97;;;;;;;8.54;100.00;100268.81;4976437;28;20228;-60
2022/11/11 15:03:13;;;;;;;18.97;13.47;;;;;;;8.39;100.00;100273.19;4979038;28;20239;-59
2022/11/11 15:06:04;;;;;;;24.73;15.17;;;;;;;8.30;100.00;100268.56;4980923;28;20232;-60
2022/11/11 15:09:00;;;;;;;24.13;14.60;;;;;;;8.22;100.00;100273.41;4976998;28;20693;-60
2022/11/11 15:11:51;;;;;;;23.03;14.80;;;;;;;8.20;100.00;100278.69;4978055;28;20823;-59
2022/11/11 15:14:45;;;;;;;21.27;14.20;;;;;;;8.17;100.00;100278.88;4967887;28;20282;-60
2022/11/11 15:17:42;;;;;;;29.37;16.40;;;;;;;8.20;100.00;100272.66;4975269;28;20259;-60
2022/11/11 15:20:50;;;;;;;20.73;14.60;;;;;;;8.22;100.00;100269.03;4975632;28;20325;-61
2022/11/11 15:23:42;;;;;;;22.00;14.83;;;;;;;8.12;100.00;100263.56;4977305;28;20243;-60
2022/11/11 15:26:37;;;;;;;23.37;15.87;;;;;;;7.98;100.00;100267.00;4979475;28;20292;-59
2022/11/11 15:29:46;;;;;;;22.27;15.80;;;;;;;7.89;100.00;100259.78;4976411;28;20236;-60
2022/11/11 15:32:39;;;;;;;27.63;18.30;;;;;;;7.83;100.00;100260.97;4976984;28;20365;-61
2022/11/11 15:35:33;;;;;;;34.53;21.47;;;;;;;7.76;100.00;100262.28;4976444;28;20801;-60
2022/11/11 15:38:20;;;;;;;41.03;27.07;;;;;;;7.70;100.00;100265.22;4974340;28;20306;-60
2022/11/11 15:41:06;;;;;;;33.30;24.07;;;;;;;7.65;100.00;100255.13;4977758;28;20244;-61
2022/11/11 15:43:53;;;;;;;25.90;18.60;;;;;;;7.54;100.00;100250.53;4974591;28;21717;-60
2022/11/11 15:46:43;;;;;;;26.30;16.67;;;;;;;7.53;100.00;100256.66;4976158;28;20505;-59
2022/11/11 15:49:38;;;;;;;24.50;16.87;;;;;;;7.48;100.00;100255.28;4975858;28;20275;-60
2022/11/11 15:52:29;;;;;;;28.17;18.17;;;;;;;7.40;100.00;100255.75;4976803;28;21317;-61
2022/11/11 15:55:23;;;;;;;30.53;17.40;;;;;;;7.36;100.00;100265.47;4977783;28;20309;-61
2022/11/11 15:58:10;;;;;;;30.67;17.07;;;;;;;7.32;100.00;100257.97;4977159;28;20315;-61
2022/11/11 16:00:58;;;;;;;28.80;17.03;;;;;;;7.23;100.00;100254.13;4977759;28;20256;-60
2022/11/11 16:03:44;;;;;;;33.20;16.83;;;;;;;7.22;100.00;100260.25;4976591;28;20275;-60
2022/11/11 16:06:29;;;;;;;39.67;18.20;;;;;;;7.31;100.00;100261.47;4978581;28;20252;-60
2022/11/11 16:09:18;;;;;;;101.77;19.80;;;;;;;7.21;100.00;100263.75;4976617;28;20236;-60
2022/11/11 16:12:04;;;;;;;66.03;18.33;;;;;;;7.20;100.00;100264.69;4982348;28;20240;-61
2022/11/11 16:14:53;;;;;;;79.70;19.13;;;;;;;7.11;100.00;100258.28;4977246;28;20248;-59
2022/11/11 16:17:42;;;;;;;84.10;20.97;;;;;;;7.09;100.00;100266.13;4977089;28;20721;-61
2022/11/11 16:20:34;;;;;;;87.43;19.03;;;;;;;7.08;100.00;100276.63;4977540;28;20367;-60
2022/11/11 16:23:21;;;;;;;252.50;23.03;;;;;;;7.09;100.00;100265.31;4979190;28;20263;-60
2022/11/11 16:26:08;;;;;;;93.07;18.87;;;;;;;7.05;100.00;100269.84;4978969;28;20763;-61
2022/11/11 16:28:55;;;;;;;96.67;19.47;;;;;;;7.06;100.00;100278.47;4981024;28;20731;-60
2022/11/11 16:31:42;;;;;;;78.00;19.13;;;;;;;7.06;100.00;100278.47;4976162;28;20302;-60
2022/11/11 16:34:36;;;;;;;36.43;19.30;;;;;;;7.06;100.00;100276.69;4975640;28;20247;-60
2022/11/11 16:37:21;;;;;;;122.50;25.03;;;;;;;7.04;100.00;100272.53;4967118;28;20295;-61
2022/11/11 16:40:25;;;;;;;295.77;27.23;;;;;;;7.02;100.00;100270.00;4972957;28;20312;-61
2022/11/11 16:43:17;;;;;;;35.90;20.90;;;;;;;7.07;100.00;100275.78;4976290;28;20228;-60
2022/11/11 16:46:05;;;;;;;37.50;20.57;;;;;;;7.12;100.00;100278.13;4977193;28;21000;-60
2022/11/11 16:48:52;;;;;;;141.40;21.47;;;;;;;7.18;100.00;100276.91;4975525;28;20363;-60
2022/11/11 16:51:43;;;;;;;47.97;17.13;;;;;;;7.16;100.00;100276.16;4976324;28;20239;-60